ADDS METAR Data INFO
IDs: Format: Raw Decoded Include TAF

Data at: 1532 UTC 18 Jun 2018

KVAY 181454Z AUTO 24009KT 10SM CLR 29/21 A3001 RMK AO2 SLP161 T02940211 58013
KVAY 181354Z AUTO 24006KT 10SM CLR 28/21 A3002 RMK AO2 SLP166 T02780206
KVAY 181254Z AUTO 00000KT 10SM CLR 26/21 A3004 RMK AO2 SLP171 T02560211
KVAY 181154Z AUTO VRB03KT 10SM 23/21 A3005 RMK AO2 SLP174 T02280211 10228 20183 58007 $
KVAY 181115Z AUTO VRB03KT 8SM SCT002 21/21 A3006 RMK AO2 T02060206 $
KVAY 181054Z AUTO 00000KT 4SM BR OVC002 20/20 A3006 RMK AO2 SLP180 T02000200 $
KVAY 181049Z AUTO 00000KT 4SM BR OVC002 20/20 A3006 RMK AO2 $
KVAY 181039Z AUTO 00000KT 2 1/2SM BR OVC002 19/19 A3007 RMK AO2 T01940194 $
KVAY 181034Z AUTO 00000KT 1 1/2SM BR 19/19 A3007 RMK AO2 T01940194 $
KVAY 181011Z AUTO 00000KT 1SM BR 19/19 A3006 RMK AO2 T01940194 $
KVAY 181005Z AUTO 00000KT 3/4SM BR OVC002 19/19 A3007 RMK AO2 T01890189 $
KVAY 180954Z AUTO 00000KT 1SM BR OVC002 19/19 A3007 RMK AO2 SLP181 T01890189 $
KVAY 180945Z AUTO 00000KT 2SM BR OVC002 19/19 A3007 RMK AO2 T01890189 $
KVAY 180928Z AUTO 00000KT 5SM BR BKN003 19/19 A3007 RMK AO2 T01890189 $
KVAY 180920Z AUTO 00000KT 5SM BR SCT003 19/19 A3007 RMK AO2 T01890189 $
KVAY 180854Z AUTO 00000KT 6SM BR CLR 19/19 A3006 RMK AO2 SLP180 T01890189 58003 $
KVAY 180754Z AUTO 00000KT 9SM CLR 18/18 A3007 RMK AO2 SLP181 T01830183 $
KVAY 180654Z AUTO 00000KT 9SM 19/18 A3007 RMK AO2 SLP182 T01890183 $
KVAY 180554Z AUTO 00000KT 10SM CLR 19/19 A3007 RMK AO2 SLP183 T01940189 10267 20194 50001 $
KVAY 180454Z AUTO 00000KT 10SM CLR 20/19 A3008 RMK AO2 SLP186 T02000189 403170144 $
KVAY 180354Z AUTO 00000KT 10SM CLR 21/18 A3008 RMK AO2 SLP185 T02060183 $
KVAY 180254Z AUTO 00000KT 10SM CLR 22/18 A3007 RMK AO2 SLP181 T02170178 51004 $
KVAY 180154Z AUTO 17003KT 10SM CLR 23/17 A3007 RMK AO2 SLP182 T02280172 $
KVAY 180054Z AUTO VRB03KT 10SM CLR 24/17 A3006 RMK AO2 SLP178 T02440172 $
KVAY 172354Z AUTO VRB03KT 10SM CLR 27/18 A3006 RMK AO2 SLP177 T02670178 10317 20267 53004 $
KVAY 172254Z AUTO 13006KT 10SM BKN080 28/18 A3005 RMK AO2 SLP173 T02780178 $
KVAY 172154Z AUTO 00000KT 10SM BKN075 31/18 A3004 RMK AO2 SLP171 T03060178 $
KVAY 172054Z AUTO VRB03KT 10SM CLR 31/16 A3004 RMK AO2 SLP173 T03110161 58004 $
KVAY 171954Z AUTO VRB03KT 10SM CLR 31/15 A3005 RMK AO2 SLP174 T03110150 $
KVAY 171854Z AUTO VRB04KT 10SM CLR 31/15 A3005 RMK AO2 SLP177 T03110150 $
KVAY 171754Z AUTO 32003KT 10SM CLR 31/14 A3006 RMK AO2 SLP177 T03060144 10306 20211 58015 $
KVAY 171654Z AUTO VRB03KT 10SM CLR 30/16 A3007 RMK AO2 SLP182 T03000156 $
KVAY 171554Z AUTO 00000KT 10SM CLR 29/16 A3009 RMK AO2 SLP188 T02940156 $
KVAY 171454Z AUTO 00000KT 10SM CLR 28/16 A3010 RMK AO2 SLP191 T02830156 51007 $
KVAY 171354Z AUTO 00000KT 10SM CLR 26/18 A3009 RMK AO2 SLP189 T02610183 $
KVAY 171254Z AUTO 00000KT 10SM 24/19 A3010 RMK AO2 SLP190 T02390189 $
KVAY 171154Z AUTO 00000KT 10SM 21/18 A3008 RMK AO2 SLP184 T02110178 10211 20144 51011 $
KVAY 171054Z AUTO 00000KT 10SM 17/16 A3007 RMK AO2 SLP181 T01720161 $
KVAY 170954Z AUTO 00000KT 10SM 15/14 A3006 RMK AO2 SLP178 T01500144 $
KVAY 170854Z AUTO 00000KT 10SM CLR 15/14 A3004 RMK AO2 SLP173 T01500144 55003 $
KVAY 170754Z AUTO 00000KT 10SM CLR 16/15 A3004 RMK AO2 SLP171 T01610150 $
KVAY 170654Z AUTO 00000KT 10SM CLR 16/15 A3004 RMK AO2 SLP171 T01610150 $
KVAY 170554Z AUTO 00000KT 10SM CLR 16/15 A3005 RMK AO2 SLP176 T01610150 10250 20161 50004 $
KVAY 170454Z AUTO 00000KT 10SM 17/16 A3006 RMK AO2 SLP177 T01720156 402890122 $
KVAY 170354Z AUTO 00000KT 10SM 19/16 A3004 RMK AO2 SLP173 T01890156 $